createdAt,value
2022-10-19T00:01:53.654Z,102671.22
2022-10-19T00:07:14.063Z,102675.50
2022-10-19T00:12:34.813Z,102672.06
2022-10-19T00:17:55.869Z,102672.94
2022-10-19T00:23:16.374Z,102675.50
2022-10-19T00:28:37.171Z,102665.19
2022-10-19T00:33:58.290Z,102674.63
2022-10-19T00:39:19.193Z,102684.09
2022-10-19T00:44:39.316Z,102690.88
2022-10-19T00:50:00.054Z,102702.03
2022-10-19T00:55:20.902Z,102691.69
2022-10-19T01:00:41.654Z,102697.69
2022-10-19T01:06:03.289Z,102698.53
2022-10-19T01:11:47.499Z,102698.50
2022-10-19T01:17:38.410Z,102691.63
2022-10-19T01:23:05.482Z,102695.84
2022-10-19T01:28:44.599Z,102695.84
2022-10-19T01:34:20.790Z,102700.09
2022-10-19T01:39:53.601Z,102700.97
2022-10-19T01:45:25.783Z,102708.66
2022-10-19T01:50:46.242Z,102708.66
2022-10-19T01:56:08.536Z,102700.91
2022-10-19T02:01:35.321Z,102699.19
2022-10-19T02:06:56.878Z,102691.47
2022-10-19T02:12:20.571Z,102693.22
2022-10-19T02:17:46.708Z,102690.63
2022-10-19T02:23:07.852Z,102702.63
2022-10-19T02:28:31.236Z,102701.78
2022-10-19T02:33:52.663Z,102697.47
2022-10-19T02:39:13.207Z,102702.63
2022-10-19T02:50:19.266Z,102710.38
2022-10-19T03:01:03.005Z,102727.59
2022-10-19T03:06:23.647Z,102719.03
2022-10-19T03:11:43.946Z,102717.34
2022-10-19T03:17:05.033Z,102727.63
2022-10-19T03:22:27.315Z,102722.50
2022-10-19T03:27:48.274Z,102724.25
2022-10-19T03:33:08.611Z,102715.69
2022-10-19T03:38:29.291Z,102729.44
2022-10-19T03:43:50.375Z,102732.84
2022-10-19T03:49:11.873Z,102738.00
2022-10-19T03:54:32.287Z,102741.41
2022-10-19T03:59:52.833Z,102755.19
2022-10-19T04:05:13.509Z,102763.72
2022-10-19T04:10:34.268Z,102760.22
2022-10-19T04:15:54.784Z,102764.47
2022-10-19T04:21:30.368Z,102774.66
2022-10-19T04:26:53.536Z,102786.66
2022-10-19T04:32:14.246Z,102790.03
2022-10-19T04:37:35.330Z,102796.09
2022-10-19T04:42:55.856Z,102811.50
2022-10-19T04:48:16.548Z,102814.91
2022-10-19T04:53:39.560Z,102823.47
2022-10-19T04:59:01.072Z,102816.56
2022-10-19T05:04:21.326Z,102821.59
2022-10-19T05:09:41.838Z,102818.00
2022-10-19T05:15:02.598Z,102822.91
2022-10-19T05:20:24.709Z,102823.56
2022-10-19T05:25:45.207Z,102831.97
2022-10-19T05:31:07.020Z,102828.38
2022-10-19T05:36:34.717Z,102820.56
2022-10-19T05:41:55.154Z,102824.69
2022-10-19T05:47:15.545Z,102829.69
2022-10-19T05:52:36.069Z,102826.13
2022-10-19T05:57:56.916Z,102823.53
2022-10-19T06:03:17.674Z,102820.13
2022-10-19T06:08:39.768Z,102805.53
2022-10-19T06:14:02.451Z,102809.72
2022-10-19T06:19:23.031Z,102825.09
2022-10-19T06:24:43.615Z,102818.28
2022-10-19T06:30:04.677Z,102828.63
2022-10-19T06:35:25.428Z,102833.84
2022-10-19T06:40:45.981Z,102841.72
2022-10-19T06:46:08.400Z,102852.13
2022-10-19T06:51:32.085Z,102850.53
2022-10-19T06:56:52.658Z,102868.59
2022-10-19T07:02:13.475Z,102870.47
2022-10-19T07:07:34.854Z,102872.31
2022-10-19T07:12:56.480Z,102874.16
2022-10-19T07:18:17.554Z,102881.09
2022-10-19T07:23:40.280Z,102871.59
2022-10-19T07:29:01.501Z,102873.28
2022-10-19T07:34:24.237Z,102880.09
2022-10-19T07:39:47.822Z,102885.16
2022-10-19T07:45:08.308Z,102882.50
2022-10-19T07:50:28.575Z,102885.88
2022-10-19T07:55:49.286Z,102892.69
2022-10-19T08:01:13.040Z,102890.13
2022-10-19T08:06:33.831Z,102890.22
2022-10-19T08:11:54.525Z,102890.66
2022-10-19T08:17:17.537Z,102901.28
2022-10-19T08:22:38.379Z,102913.47
2022-10-19T08:27:59.311Z,102908.50
2022-10-19T08:33:19.776Z,102912.88
2022-10-19T08:38:43.588Z,102912.91
2022-10-19T08:44:10.258Z,102912.88
2022-10-19T08:49:32.023Z,102917.13
2022-10-19T08:54:54.448Z,102933.38
2022-10-19T09:00:35.207Z,102931.63
2022-10-19T09:06:22.554Z,102935.28
2022-10-19T09:11:46.340Z,102933.00
2022-10-19T09:17:13.886Z,102922.91
2022-10-19T09:22:35.883Z,102927.31
2022-10-19T09:28:27.410Z,102935.13
2022-10-19T09:33:57.330Z,102944.44
2022-10-19T09:39:18.388Z,102938.31
2022-10-19T09:44:38.942Z,102943.88
2022-10-19T09:50:15.230Z,102946.31
2022-10-19T09:55:42.882Z,102953.00
2022-10-19T10:01:03.895Z,102954.19
2022-10-19T10:06:24.492Z,102955.91
2022-10-19T10:11:49.433Z,102953.28
2022-10-19T10:17:17.837Z,102944.66
2022-10-19T10:22:38.190Z,102952.94
2022-10-19T10:28:02.139Z,102943.16
2022-10-19T10:33:44.179Z,102939.38
2022-10-19T10:39:08.286Z,102936.81
2022-10-19T10:44:34.972Z,102937.78
2022-10-19T10:50:02.628Z,102924.88
2022-10-19T10:55:23.523Z,102933.25
2022-10-19T11:00:45.291Z,102927.47
2022-10-19T11:06:09.056Z,102928.75
2022-10-19T11:11:39.903Z,102921.72
2022-10-19T11:17:06.028Z,102927.19
2022-10-19T11:22:40.130Z,102927.38
2022-10-19T11:28:20.949Z,102919.78
2022-10-19T11:33:54.004Z,102912.91
2022-10-19T11:39:41.489Z,102903.06
2022-10-19T11:45:15.635Z,102892.09
2022-10-19T11:50:58.582Z,102887.94
2022-10-19T11:57:03.237Z,102875.53
2022-10-19T12:03:03.901Z,102876.91
2022-10-19T12:08:30.532Z,102871.84
2022-10-19T12:13:56.202Z,102863.13
2022-10-19T12:19:22.803Z,102852.59
2022-10-19T12:24:43.472Z,102858.81
2022-10-19T12:30:18.433Z,102843.06
2022-10-19T12:35:52.407Z,102829.63
2022-10-19T12:41:18.613Z,102824.00
2022-10-19T12:46:49.824Z,102823.28
2022-10-19T12:52:15.908Z,102819.28
2022-10-19T12:57:39.846Z,102815.97
2022-10-19T13:03:25.122Z,102805.66
2022-10-19T13:08:57.083Z,102795.03
2022-10-19T13:14:17.579Z,102798.25
2022-10-19T13:19:37.837Z,102789.91
2022-10-19T13:25:16.714Z,102777.31
2022-10-19T13:30:41.697Z,102786.50
2022-10-19T13:36:06.530Z,102764.19
2022-10-19T13:41:38.445Z,102769.13
2022-10-19T13:47:31.839Z,102768.72
2022-10-19T13:52:52.370Z,102765.09
2022-10-19T13:58:36.941Z,102770.09
2022-10-19T14:04:30.412Z,102756.38
2022-10-19T14:09:50.816Z,102739.56
2022-10-19T14:15:20.353Z,102742.63
2022-10-19T14:20:41.057Z,102738.13
2022-10-19T14:26:11.833Z,102736.41
2022-10-19T14:31:36.415Z,102730.69
2022-10-19T14:36:57.262Z,102741.03
2022-10-19T14:42:17.923Z,102741.13
2022-10-19T14:48:01.014Z,102728.34
2022-10-19T14:53:39.777Z,102721.50
2022-10-19T14:59:19.638Z,102725.94
2022-10-19T15:04:40.490Z,102712.19
2022-10-19T15:10:04.636Z,102698.44
2022-10-19T15:15:30.271Z,102695.91
2022-10-19T15:21:12.673Z,102695.94
2022-10-19T15:26:33.575Z,102686.50
2022-10-19T15:31:56.474Z,102677.94
2022-10-19T15:37:21.483Z,102672.00
2022-10-19T15:42:45.591Z,102670.28
2022-10-19T15:48:15.859Z,102665.16
2022-10-19T15:53:36.343Z,102674.66
2022-10-19T15:58:59.136Z,102672.94
2022-10-19T16:04:19.714Z,102674.69
2022-10-19T16:09:40.284Z,102677.28
2022-10-19T16:15:01.081Z,102677.31
2022-10-19T16:20:23.034Z,102669.56
2022-10-19T16:25:43.779Z,102676.41
2022-10-19T16:31:04.112Z,102681.53
2022-10-19T16:36:24.388Z,102683.22
2022-10-19T16:41:44.874Z,102682.28
2022-10-19T16:47:05.846Z,102691.66
2022-10-19T16:52:31.910Z,102689.00
2022-10-19T16:57:53.372Z,102686.34
2022-10-19T17:03:14.189Z,102700.81
2022-10-19T17:09:07.398Z,102704.16
2022-10-19T17:14:15.177Z,102716.91
2022-10-19T17:19:37.219Z,102716.81
2022-10-19T17:24:57.544Z,102725.28
2022-10-19T17:30:18.701Z,102728.66
2022-10-19T17:35:39.096Z,102731.97
2022-10-19T17:41:11.815Z,102723.31
2022-10-19T17:46:34.973Z,102718.91
2022-10-19T17:51:55.358Z,102726.50
2022-10-19T17:57:15.590Z,102726.38
2022-10-19T18:02:36.076Z,102718.53
2022-10-19T18:07:57.112Z,102712.41
2022-10-19T18:13:17.721Z,102705.44
2022-10-19T18:18:41.164Z,102696.72
2022-10-19T18:24:02.911Z,102694.00
2022-10-19T18:29:26.000Z,102681.91
2022-10-19T18:34:46.557Z,102686.09
2022-10-19T18:40:10.325Z,102679.09
2022-10-19T18:45:31.679Z,102677.25
2022-10-19T18:50:52.404Z,102674.59
2022-10-19T18:56:15.399Z,102672.78
2022-10-19T19:01:35.945Z,102667.53
2022-10-19T19:06:56.052Z,102666.50
2022-10-19T19:12:17.182Z,102656.13
2022-10-19T19:17:38.549Z,102639.81
2022-10-19T19:22:59.270Z,102641.41
2022-10-19T19:28:19.997Z,102631.03
2022-10-19T19:33:40.704Z,102622.44
2022-10-19T19:39:01.752Z,102618.06
2022-10-19T19:44:22.465Z,102622.22
2022-10-19T19:49:42.861Z,102619.66
2022-10-19T19:55:04.236Z,102610.19
2022-10-19T20:00:24.851Z,102605.88
2022-10-19T20:05:45.424Z,102601.53
2022-10-19T20:11:09.558Z,102593.78
2022-10-19T20:16:34.226Z,102599.72
2022-10-19T20:21:56.281Z,102593.69
2022-10-19T20:27:16.961Z,102590.28
2022-10-19T20:32:38.061Z,102588.53
2022-10-19T20:37:59.075Z,102580.81
2022-10-19T20:43:19.628Z,102573.09
2022-10-19T20:48:40.773Z,102576.50
2022-10-19T20:54:03.092Z,102578.16
2022-10-19T20:59:27.765Z,102573.88
2022-10-19T21:04:48.367Z,102578.91
2022-10-19T21:10:08.847Z,102583.13
2022-10-19T21:15:29.170Z,102570.25
2022-10-19T21:20:49.750Z,102564.25
2022-10-19T21:26:11.686Z,102559.91
2022-10-19T21:31:32.293Z,102548.78
2022-10-19T21:36:54.015Z,102547.03
2022-10-19T21:42:14.352Z,102543.50
2022-10-19T21:47:35.908Z,102554.47
2022-10-19T21:52:56.657Z,102533.94
2022-10-19T21:58:17.595Z,102534.72
2022-10-19T22:03:38.339Z,102528.75
2022-10-19T22:08:59.586Z,102525.22
2022-10-19T22:14:20.203Z,102512.28
2022-10-19T22:19:40.786Z,102509.66
2022-10-19T22:25:01.656Z,102499.34
2022-10-19T22:30:22.089Z,102499.19
2022-10-19T22:35:42.647Z,102488.88
2022-10-19T22:41:03.244Z,102474.38
2022-10-19T22:46:23.740Z,102470.09
2022-10-19T22:51:44.344Z,102460.78
2022-10-19T22:57:05.691Z,102450.56
2022-10-19T23:02:25.772Z,102452.31
2022-10-19T23:07:46.577Z,102442.94
2022-10-19T23:13:07.396Z,102436.94
2022-10-19T23:18:31.802Z,102442.88
2022-10-19T23:23:52.363Z,102442.94
2022-10-19T23:29:12.814Z,102442.19
2022-10-19T23:39:59.807Z,102427.75
2022-10-19T23:45:20.386Z,102430.34
2022-10-19T23:50:40.947Z,102439.72
2022-10-19T23:56:03.912Z,102436.25
